createdAt,value
2019-05-23T00:01:05.381Z,6.00
2019-05-23T00:03:45.620Z,5.90
2019-05-23T00:06:30.701Z,5.80
2019-05-23T00:09:00.653Z,5.80
2019-05-23T00:11:42.168Z,5.70
2019-05-23T00:14:18.077Z,5.70
2019-05-23T00:16:48.090Z,5.70
2019-05-23T00:19:18.054Z,5.60
2019-05-23T00:21:49.668Z,5.60
2019-05-23T00:24:20.778Z,5.60
2019-05-23T00:26:51.114Z,5.60
2019-05-23T00:29:22.705Z,5.50
2019-05-23T00:32:09.950Z,5.50
2019-05-23T00:34:39.987Z,5.50
2019-05-23T00:37:12.816Z,5.50
2019-05-23T00:39:47.841Z,5.50
2019-05-23T00:42:19.407Z,5.50
2019-05-23T00:44:49.834Z,5.50
2019-05-23T00:47:20.021Z,5.50
2019-05-23T00:49:50.153Z,5.50
2019-05-23T00:52:23.573Z,5.50
2019-05-23T00:54:57.867Z,5.50
2019-05-23T00:57:28.258Z,5.60
2019-05-23T01:00:00.108Z,5.50
2019-05-23T01:02:28.497Z,5.50
2019-05-23T01:04:59.525Z,5.40
2019-05-23T01:07:31.092Z,5.30
2019-05-23T01:09:59.492Z,5.30
2019-05-23T01:12:32.294Z,5.30
2019-05-23T01:15:08.568Z,5.20
2019-05-23T01:17:36.947Z,5.20
2019-05-23T01:20:12.613Z,5.30
2019-05-23T01:22:42.630Z,5.30
2019-05-23T01:25:15.469Z,5.30
2019-05-23T01:27:47.049Z,5.30
2019-05-23T01:30:39.321Z,5.30
2019-05-23T01:33:10.270Z,5.30
2019-05-23T01:35:41.882Z,5.30
2019-05-23T01:38:13.759Z,5.30
2019-05-23T01:40:46.737Z,5.30
2019-05-23T01:43:18.235Z,5.40
2019-05-23T01:45:52.071Z,5.40
2019-05-23T01:48:26.102Z,5.30
2019-05-23T01:50:59.405Z,5.30
2019-05-23T01:53:31.246Z,5.20
2019-05-23T01:56:01.519Z,5.30
2019-05-23T01:58:46.326Z,5.30
2019-05-23T02:01:16.358Z,5.20
2019-05-23T02:03:49.148Z,5.20
2019-05-23T02:06:19.346Z,5.20
2019-05-23T02:08:55.286Z,5.20
2019-05-23T02:11:29.393Z,5.20
2019-05-23T02:14:00.190Z,5.10
2019-05-23T02:16:31.823Z,5.20
2019-05-23T02:19:08.584Z,5.30
2019-05-23T02:21:40.075Z,5.30
2019-05-23T02:24:11.973Z,5.40
2019-05-23T02:26:48.637Z,5.30
2019-05-23T02:29:18.645Z,5.30
2019-05-23T02:31:51.586Z,5.20
2019-05-23T02:34:23.151Z,5.30
2019-05-23T02:36:53.256Z,5.30
2019-05-23T02:39:34.479Z,5.30
2019-05-23T02:42:08.573Z,5.30
2019-05-23T02:44:39.298Z,5.10
2019-05-23T02:47:20.180Z,5.00
2019-05-23T02:49:51.735Z,5.00
2019-05-23T02:52:24.867Z,4.90
2019-05-23T02:54:58.118Z,5.00
2019-05-23T02:57:31.270Z,5.00
2019-05-23T03:00:04.381Z,5.00
2019-05-23T03:02:48.941Z,5.00
2019-05-23T03:05:25.204Z,4.90
2019-05-23T03:07:59.520Z,4.80
2019-05-23T03:10:32.623Z,4.70
2019-05-23T03:13:02.666Z,4.70
2019-05-23T03:15:34.896Z,4.70
2019-05-23T03:18:05.516Z,4.70
2019-05-23T03:20:35.692Z,4.60
2019-05-23T03:23:11.834Z,4.60
2019-05-23T03:25:44.251Z,4.60
2019-05-23T03:28:16.201Z,4.50
2019-05-23T03:30:52.370Z,4.50
2019-05-23T03:33:23.510Z,4.60
2019-05-23T03:36:03.887Z,4.60
2019-05-23T03:38:35.538Z,4.60
2019-05-23T03:41:05.545Z,4.70
2019-05-23T03:43:38.171Z,4.90
2019-05-23T03:46:21.683Z,5.00
2019-05-23T03:48:59.658Z,5.10
2019-05-23T03:51:31.449Z,5.10
2019-05-23T03:54:03.014Z,5.20
2019-05-23T03:56:33.049Z,5.30
2019-05-23T03:59:04.687Z,5.30
2019-05-23T04:01:47.983Z,5.40
2019-05-23T04:04:09.785Z,5.40
2019-05-23T04:06:42.496Z,5.50
2019-05-23T04:09:15.427Z,5.60
2019-05-23T04:12:04.797Z,5.80
2019-05-23T04:14:38.005Z,5.90
2019-05-23T04:17:08.350Z,5.90
2019-05-23T04:19:37.019Z,6.00
2019-05-23T04:22:07.302Z,6.10
2019-05-23T04:24:35.713Z,6.20
2019-05-23T04:27:05.163Z,6.30
2019-05-23T04:29:35.051Z,6.50
2019-05-23T04:32:08.950Z,6.50
2019-05-23T04:34:42.689Z,6.70
2019-05-23T04:37:12.626Z,6.80
2019-05-23T04:39:42.746Z,6.90
2019-05-23T04:42:14.766Z,7.20
2019-05-23T04:44:45.034Z,7.40
2019-05-23T04:47:16.649Z,7.60
2019-05-23T04:49:45.084Z,7.70
2019-05-23T04:52:18.433Z,7.90
2019-05-23T04:54:50.609Z,8.10
2019-05-23T04:57:21.981Z,8.30
2019-05-23T04:59:55.909Z,8.70
2019-05-23T05:02:30.099Z,9.20
2019-05-23T05:05:04.706Z,9.70
2019-05-23T05:07:34.783Z,10.00
2019-05-23T05:12:32.202Z,10.50
2019-05-23T05:15:08.369Z,11.50
2019-05-23T05:17:41.313Z,12.00
2019-05-23T05:20:14.548Z,12.60
2019-05-23T05:22:43.594Z,12.90
2019-05-23T05:25:15.403Z,12.80
2019-05-23T05:27:43.794Z,12.60
2019-05-23T05:30:18.286Z,12.50
2019-05-23T05:32:50.910Z,12.70
2019-05-23T05:35:22.825Z,12.80
2019-05-23T05:37:52.746Z,13.10
2019-05-23T05:40:21.133Z,13.60
2019-05-23T05:42:51.450Z,14.00
2019-05-23T05:45:21.453Z,14.40
2019-05-23T05:47:54.309Z,14.70
2019-05-23T05:50:24.387Z,14.80
2019-05-23T05:52:55.244Z,15.30
2019-05-23T05:55:25.275Z,15.70
2019-05-23T05:57:53.991Z,16.10
2019-05-23T06:00:29.647Z,16.50
2019-05-23T06:03:04.993Z,16.70
2019-05-23T06:05:52.658Z,17.20
2019-05-23T06:08:23.352Z,17.40
2019-05-23T06:10:53.536Z,17.80
2019-05-23T06:13:23.469Z,18.30
2019-05-23T06:15:54.797Z,18.60
2019-05-23T06:18:23.191Z,18.80
2019-05-23T06:20:51.651Z,18.70
2019-05-23T06:23:21.586Z,18.70
2019-05-23T06:25:51.514Z,18.80
2019-05-23T06:28:22.743Z,18.80
2019-05-23T06:30:54.260Z,18.80
2019-05-23T06:33:28.440Z,18.90
2019-05-23T06:35:57.091Z,19.00
2019-05-23T06:38:30.116Z,19.50
2019-05-23T06:41:01.678Z,19.70
2019-05-23T06:43:37.598Z,19.90
2019-05-23T06:46:07.910Z,20.00
2019-05-23T06:48:44.775Z,20.50
2019-05-23T06:51:13.004Z,20.60
2019-05-23T06:53:42.542Z,20.40
2019-05-23T06:56:15.978Z,20.50
2019-05-23T06:58:50.137Z,20.60
2019-05-23T07:01:18.597Z,20.80
2019-05-23T07:03:49.534Z,20.80
2019-05-23T07:06:21.005Z,21.00
2019-05-23T07:08:52.579Z,21.10
2019-05-23T07:11:24.733Z,21.30
2019-05-23T07:13:54.753Z,21.80
2019-05-23T07:16:23.229Z,22.60
2019-05-23T07:18:51.763Z,23.30
2019-05-23T07:21:21.971Z,23.50
2019-05-23T07:23:51.982Z,23.70
2019-05-23T07:26:28.124Z,22.50
2019-05-23T07:29:01.010Z,22.60
2019-05-23T07:31:31.325Z,22.00
2019-05-23T07:34:05.279Z,22.80
2019-05-23T07:36:37.921Z,23.50
2019-05-23T07:39:11.840Z,24.20
2019-05-23T07:41:51.511Z,24.40
2019-05-23T07:44:23.405Z,24.40
2019-05-23T07:46:52.046Z,23.60
2019-05-23T07:49:20.473Z,23.30
2019-05-23T07:51:49.123Z,22.90
2019-05-23T07:54:24.557Z,22.60
2019-05-23T07:56:53.662Z,22.60
2019-05-23T07:59:23.983Z,22.50
2019-05-23T08:01:59.870Z,23.10
2019-05-23T08:04:37.161Z,23.50
2019-05-23T08:07:13.287Z,23.90
2019-05-23T08:09:41.930Z,24.60
2019-05-23T08:12:13.239Z,25.00
2019-05-23T08:14:41.889Z,24.50
2019-05-23T08:17:15.996Z,23.80
2019-05-23T08:19:50.635Z,24.00
2019-05-23T08:22:20.208Z,23.20
2019-05-23T08:24:55.996Z,22.50
2019-05-23T08:27:27.441Z,22.40
2019-05-23T08:29:57.545Z,23.30
2019-05-23T08:32:26.010Z,23.60
2019-05-23T08:34:58.857Z,23.90
2019-05-23T08:37:28.975Z,23.70
2019-05-23T08:39:57.390Z,24.00
2019-05-23T08:42:27.505Z,24.30
2019-05-23T08:44:58.382Z,24.80
2019-05-23T08:47:27.118Z,25.10
2019-05-23T08:49:55.574Z,24.80
2019-05-23T08:52:26.442Z,25.10
2019-05-23T08:54:57.914Z,24.90
2019-05-23T08:57:31.066Z,23.60
2019-05-23T09:00:06.437Z,23.80
2019-05-23T09:02:42.495Z,24.20
2019-05-23T09:05:15.208Z,24.60
2019-05-23T09:07:43.832Z,25.10
2019-05-23T09:10:14.017Z,25.20
2019-05-23T09:12:45.918Z,24.20
2019-05-23T09:15:21.636Z,23.50
2019-05-23T09:17:54.497Z,24.50
2019-05-23T09:20:24.591Z,24.60
2019-05-23T09:22:58.926Z,24.70
2019-05-23T09:25:27.635Z,24.30
2019-05-23T09:27:58.167Z,24.20
2019-05-23T09:30:28.278Z,23.90
2019-05-23T09:32:58.341Z,24.70
2019-05-23T09:35:28.506Z,25.80
2019-05-23T09:38:04.173Z,26.30
2019-05-23T09:40:34.289Z,26.30
2019-05-23T09:43:04.277Z,25.50
2019-05-23T09:45:35.835Z,24.70
2019-05-23T09:48:15.663Z,24.70
2019-05-23T09:50:47.142Z,25.10
2019-05-23T09:53:17.419Z,24.70
2019-05-23T09:55:47.457Z,24.40
2019-05-23T09:58:15.859Z,24.60
2019-05-23T10:00:48.961Z,24.90
2019-05-23T10:03:17.509Z,24.60
2019-05-23T10:05:47.619Z,24.80
2019-05-23T10:08:16.329Z,25.30
2019-05-23T10:10:46.530Z,25.80
2019-05-23T10:13:16.556Z,26.30
2019-05-23T10:16:03.711Z,27.20
2019-05-23T10:18:33.954Z,27.00
2019-05-23T10:21:04.058Z,26.40
2019-05-23T10:23:34.282Z,26.80
2019-05-23T10:26:04.526Z,27.50
2019-05-23T10:28:32.993Z,26.70
2019-05-23T10:31:04.498Z,26.10
2019-05-23T10:33:37.177Z,26.10
2019-05-23T10:36:07.191Z,26.50
2019-05-23T10:38:37.540Z,26.30
2019-05-23T10:41:09.171Z,25.80
2019-05-23T10:43:37.590Z,26.10
2019-05-23T10:46:08.863Z,26.70
2019-05-23T10:48:41.673Z,27.00
2019-05-23T10:51:11.775Z,26.90
2019-05-23T10:53:43.169Z,26.70
2019-05-23T10:56:11.989Z,26.70
2019-05-23T10:58:51.873Z,26.90
2019-05-23T11:01:28.000Z,27.50
2019-05-23T11:03:56.455Z,27.70
2019-05-23T11:06:25.898Z,27.70
2019-05-23T11:08:56.285Z,28.00
2019-05-23T11:11:29.258Z,27.60
2019-05-23T11:13:59.429Z,27.20
2019-05-23T11:16:29.819Z,27.30
2019-05-23T11:19:00.034Z,27.50
2019-05-23T11:21:30.448Z,27.20
2019-05-23T11:24:02.337Z,27.20
2019-05-23T11:26:33.764Z,27.10
2019-05-23T11:29:07.903Z,26.90
2019-05-23T11:31:39.144Z,26.80
2019-05-23T11:34:09.440Z,26.30
2019-05-23T11:36:43.808Z,26.50
2019-05-23T11:39:13.849Z,26.30
2019-05-23T11:41:42.701Z,26.00
2019-05-23T11:44:12.727Z,26.10
2019-05-23T11:46:43.086Z,25.90
2019-05-23T11:49:18.190Z,26.30
2019-05-23T11:51:46.734Z,26.50
2019-05-23T11:54:25.690Z,25.80
2019-05-23T11:56:57.250Z,25.50
2019-05-23T11:59:28.835Z,25.20
2019-05-23T12:01:58.865Z,25.20
2019-05-23T12:04:31.558Z,24.90
2019-05-23T12:07:06.099Z,24.10
2019-05-23T12:09:37.347Z,23.30
2019-05-23T12:12:07.291Z,23.10
2019-05-23T12:14:37.379Z,23.00
2019-05-23T12:17:06.255Z,23.30
2019-05-23T12:19:36.402Z,23.80
2019-05-23T12:22:06.600Z,23.80
2019-05-23T12:24:37.898Z,24.20
2019-05-23T12:27:09.091Z,24.60
2019-05-23T12:29:39.435Z,25.20
2019-05-23T12:32:13.948Z,25.10
2019-05-23T12:35:08.052Z,24.60
2019-05-23T12:37:21.056Z,24.80
2019-05-23T12:39:57.421Z,25.30
2019-05-23T12:42:25.862Z,25.50
2019-05-23T12:44:57.470Z,25.60
2019-05-23T12:47:27.501Z,25.20
2019-05-23T12:50:03.584Z,24.80
2019-05-23T12:52:34.919Z,24.50
2019-05-23T12:55:05.111Z,24.50
2019-05-23T12:57:33.571Z,24.50
2019-05-23T13:00:04.854Z,24.40
2019-05-23T13:02:33.373Z,24.20
2019-05-23T13:05:09.699Z,24.00
2019-05-23T13:07:38.190Z,23.70
2019-05-23T13:10:08.537Z,23.60
2019-05-23T13:12:40.169Z,23.60
2019-05-23T13:15:12.820Z,23.70
2019-05-23T13:17:45.815Z,23.60
2019-05-23T13:20:17.255Z,23.70
2019-05-23T13:22:45.713Z,23.90
2019-05-23T13:25:17.382Z,24.10
2019-05-23T13:27:45.787Z,24.50
2019-05-23T13:30:14.393Z,25.30
2019-05-23T13:32:45.577Z,25.60
2019-05-23T13:35:18.973Z,25.60
2019-05-23T13:37:53.846Z,25.60
2019-05-23T13:40:21.821Z,25.10
2019-05-23T13:42:50.222Z,24.90
2019-05-23T13:45:20.910Z,24.90
2019-05-23T13:47:49.298Z,25.40
2019-05-23T13:50:18.963Z,25.60
2019-05-23T13:52:53.026Z,26.00
2019-05-23T13:55:21.425Z,26.60
2019-05-23T13:57:49.858Z,27.00
2019-05-23T14:00:22.588Z,27.20
2019-05-23T14:02:57.278Z,27.20
2019-05-23T14:05:27.305Z,27.10
2019-05-23T14:08:12.532Z,26.80
2019-05-23T14:10:31.981Z,26.20
2019-05-23T14:13:07.465Z,26.60
2019-05-23T14:15:40.361Z,27.20
2019-05-23T14:18:10.511Z,27.90
2019-05-23T14:20:42.153Z,28.30
2019-05-23T14:23:12.346Z,28.90
2019-05-23T14:25:48.470Z,29.40
2019-05-23T14:28:22.349Z,29.70
2019-05-23T14:30:56.549Z,29.90
2019-05-23T14:33:26.589Z,29.80
2019-05-23T14:36:01.042Z,30.00
2019-05-23T14:38:35.290Z,30.50
2019-05-23T14:41:05.464Z,30.20
2019-05-23T14:43:33.995Z,29.30
2019-05-23T14:46:09.826Z,29.20
2019-05-23T14:48:56.890Z,29.10
2019-05-23T14:51:29.390Z,29.70
2019-05-23T14:54:06.847Z,29.90
2019-05-23T14:56:41.520Z,29.20
2019-05-23T14:59:11.462Z,28.20
2019-05-23T15:01:43.111Z,28.00
2019-05-23T15:04:15.735Z,28.10
2019-05-23T15:06:44.602Z,28.20
2019-05-23T15:09:12.986Z,29.20
2019-05-23T15:11:44.440Z,29.80
2019-05-23T15:14:15.647Z,30.20
2019-05-23T15:16:45.143Z,30.80
2019-05-23T15:19:38.349Z,30.60
2019-05-23T15:21:46.820Z,30.10
2019-05-23T15:24:18.095Z,30.40
2019-05-23T15:26:46.706Z,30.30
2019-05-23T15:29:18.039Z,30.40
2019-05-23T15:32:00.916Z,30.00
2019-05-23T15:34:19.085Z,30.10
2019-05-23T15:36:51.721Z,30.70
2019-05-23T15:39:24.737Z,31.30
2019-05-23T15:41:56.196Z,31.00
2019-05-23T15:44:29.580Z,30.10
2019-05-23T15:47:00.451Z,29.00
2019-05-23T15:49:30.910Z,27.70
2019-05-23T15:52:02.229Z,26.80
2019-05-23T15:54:41.622Z,26.50
2019-05-23T15:57:14.706Z,26.20
2019-05-23T15:59:47.510Z,26.20
2019-05-23T16:02:20.196Z,26.50
2019-05-23T16:04:52.968Z,26.90
2019-05-23T16:07:22.010Z,27.20
2019-05-23T16:09:50.441Z,27.50
2019-05-23T16:12:20.673Z,27.50
2019-05-23T16:14:49.386Z,27.40
2019-05-23T16:17:17.765Z,27.80
2019-05-23T16:19:46.472Z,27.20
2019-05-23T16:22:15.238Z,27.30
2019-05-23T16:24:43.695Z,27.70
2019-05-23T16:27:14.657Z,28.00
2019-05-23T16:29:45.965Z,27.90
2019-05-23T16:32:17.085Z,27.60
2019-05-23T16:34:48.399Z,27.30
2019-05-23T16:37:16.924Z,27.50
2019-05-23T16:39:51.192Z,27.90
2019-05-23T16:42:21.284Z,27.60
2019-05-23T16:44:52.460Z,27.70
2019-05-23T16:47:22.624Z,27.70
2019-05-23T16:49:55.250Z,27.20
2019-05-23T16:52:26.497Z,26.30
2019-05-23T16:54:56.607Z,25.60
2019-05-23T16:57:41.698Z,24.80
2019-05-23T17:00:30.429Z,24.10
2019-05-23T17:03:18.263Z,23.40
2019-05-23T17:06:07.402Z,23.00
2019-05-23T17:08:59.967Z,22.60
2019-05-23T17:11:34.282Z,22.10
2019-05-23T17:14:14.594Z,21.90
2019-05-23T17:16:53.823Z,21.70
2019-05-23T17:19:40.251Z,21.50
2019-05-23T17:22:13.417Z,21.40
2019-05-23T17:25:00.064Z,21.30
2019-05-23T17:27:32.915Z,21.20
2019-05-23T17:30:02.962Z,21.00
2019-05-23T17:32:32.984Z,20.90
2019-05-23T17:35:03.018Z,20.70
2019-05-23T17:37:33.049Z,20.50
2019-05-23T17:40:23.693Z,20.40
2019-05-23T17:42:38.379Z,20.30
2019-05-23T17:45:08.377Z,20.10
2019-05-23T17:47:39.742Z,20.00
2019-05-23T17:50:09.895Z,19.90
2019-05-23T17:52:38.354Z,19.80
2019-05-23T17:55:09.146Z,19.70
2019-05-23T17:57:39.193Z,19.60
2019-05-23T18:00:12.294Z,19.40
2019-05-23T18:02:44.040Z,19.30
2019-05-23T18:05:14.350Z,19.20
2019-05-23T18:07:44.286Z,19.10
2019-05-23T18:10:18.868Z,19.00
2019-05-23T18:12:48.853Z,18.90
2019-05-23T18:15:17.246Z,18.80
2019-05-23T18:17:47.289Z,18.70
2019-05-23T18:20:17.365Z,18.50
2019-05-23T18:22:48.157Z,18.40
2019-05-23T18:25:23.249Z,18.30
2019-05-23T18:27:51.965Z,18.20
2019-05-23T18:30:33.984Z,18.10
2019-05-23T18:33:06.511Z,18.00
2019-05-23T18:35:40.432Z,17.80
2019-05-23T18:38:10.661Z,17.70
2019-05-23T18:40:40.699Z,17.50
2019-05-23T18:43:09.127Z,17.30
2019-05-23T18:45:39.166Z,17.10
2019-05-23T18:48:07.613Z,16.90
2019-05-23T18:50:36.776Z,16.60
2019-05-23T18:53:07.121Z,16.40
2019-05-23T18:55:39.868Z,16.30
2019-05-23T18:58:10.153Z,16.10
2019-05-23T19:00:58.253Z,15.90
2019-05-23T19:03:37.162Z,15.60
2019-05-23T19:06:08.529Z,15.40
2019-05-23T19:08:36.996Z,15.10
2019-05-23T19:11:20.288Z,14.80
2019-05-23T19:13:37.442Z,14.60
2019-05-23T19:16:09.086Z,14.50
2019-05-23T19:18:41.875Z,14.40
2019-05-23T19:21:13.447Z,14.20
2019-05-23T19:23:43.862Z,14.10
2019-05-23T19:26:12.391Z,14.00
2019-05-23T19:28:42.533Z,13.90
2019-05-23T19:31:14.169Z,13.80
2019-05-23T19:33:54.520Z,13.70
2019-05-23T19:36:24.620Z,13.60
2019-05-23T19:38:54.966Z,13.50
2019-05-23T19:41:36.001Z,13.30
2019-05-23T19:43:55.376Z,13.20
2019-05-23T19:46:27.007Z,13.00
2019-05-23T19:48:58.703Z,12.90
2019-05-23T19:51:27.402Z,12.70
2019-05-23T19:53:57.359Z,12.60
2019-05-23T19:56:30.298Z,12.60
2019-05-23T19:58:58.685Z,12.50
2019-05-23T20:01:32.410Z,12.50
2019-05-23T20:04:01.115Z,12.40
2019-05-23T20:06:31.030Z,12.30
2019-05-23T20:09:01.062Z,12.30
2019-05-23T20:11:32.546Z,12.30
2019-05-23T20:14:12.437Z,12.20
2019-05-23T20:16:40.989Z,12.20
2019-05-23T20:19:12.640Z,12.20
2019-05-23T20:21:41.321Z,12.10
2019-05-23T20:24:13.799Z,12.10
2019-05-23T20:26:40.080Z,12.00
2019-05-23T20:29:08.779Z,12.00
2019-05-23T20:31:39.054Z,12.00
2019-05-23T20:34:11.096Z,11.90
2019-05-23T20:36:39.555Z,11.90
2019-05-23T20:39:12.293Z,11.80
2019-05-23T20:41:42.389Z,11.80
2019-05-23T20:44:10.940Z,11.70
2019-05-23T20:46:39.586Z,11.60
2019-05-23T20:49:10.438Z,11.50
2019-05-23T20:51:40.510Z,11.50
2019-05-23T20:54:10.794Z,11.40
2019-05-23T20:56:39.271Z,11.30
2019-05-23T20:59:10.890Z,11.20
2019-05-23T21:01:42.562Z,11.20
2019-05-23T21:04:13.908Z,11.00
2019-05-23T21:06:43.918Z,11.00
2019-05-23T21:09:15.729Z,10.90
2019-05-23T21:11:42.850Z,10.90
2019-05-23T21:14:16.633Z,10.80
2019-05-23T21:16:48.078Z,10.70
2019-05-23T21:19:18.015Z,10.70
2019-05-23T21:21:46.485Z,10.60
2019-05-23T21:24:15.129Z,10.60
2019-05-23T21:26:43.525Z,10.50
2019-05-23T21:29:11.998Z,10.40
2019-05-23T21:31:43.367Z,10.30
2019-05-23T21:34:14.578Z,10.20
2019-05-23T21:36:45.875Z,10.20
2019-05-23T21:39:15.933Z,10.10
2019-05-23T21:41:45.371Z,10.00
2019-05-23T21:44:13.804Z,10.00
2019-05-23T21:46:44.943Z,10.00
2019-05-23T21:49:15.081Z,10.00
2019-05-23T21:51:45.093Z,10.00
2019-05-23T21:54:20.290Z,10.00
2019-05-23T21:56:48.692Z,9.90
2019-05-23T21:59:20.064Z,9.90
2019-05-23T22:01:52.789Z,9.80
2019-05-23T22:04:29.447Z,9.80
2019-05-23T22:07:01.348Z,9.80
2019-05-23T22:09:31.533Z,9.80
2019-05-23T22:12:00.745Z,9.80
2019-05-23T22:14:33.826Z,9.80
2019-05-23T22:17:06.790Z,9.80
2019-05-23T22:19:36.809Z,9.70
2019-05-23T22:22:08.339Z,9.60
2019-05-23T22:24:36.727Z,9.50
2019-05-23T22:27:06.879Z,9.50
2019-05-23T22:29:36.241Z,9.40
2019-05-23T22:32:06.261Z,9.40
2019-05-23T22:34:36.370Z,9.40
2019-05-23T22:37:19.472Z,9.40
2019-05-23T22:39:48.198Z,9.30
2019-05-23T22:42:18.314Z,9.40
2019-05-23T22:44:46.724Z,9.40
2019-05-23T22:47:15.430Z,9.40
2019-05-23T22:49:46.491Z,9.30
2019-05-23T22:52:14.880Z,9.30
2019-05-23T22:54:43.354Z,9.30
2019-05-23T22:57:13.661Z,9.20
2019-05-23T22:59:42.290Z,9.20
2019-05-23T23:02:16.209Z,9.20
2019-05-23T23:04:48.859Z,9.20
2019-05-23T23:07:18.946Z,9.10
2019-05-23T23:09:52.112Z,9.10
2019-05-23T23:12:22.394Z,9.00
2019-05-23T23:14:53.928Z,8.90
2019-05-23T23:17:23.976Z,8.90
2019-05-23T23:19:57.037Z,8.80
2019-05-23T23:22:27.931Z,8.80
2019-05-23T23:24:57.905Z,8.70
2019-05-23T23:27:33.289Z,8.60
2019-05-23T23:30:10.067Z,8.60
2019-05-23T23:32:38.495Z,8.60
2019-05-23T23:35:09.799Z,8.60
2019-05-23T23:37:38.430Z,8.50
2019-05-23T23:40:11.745Z,8.40
2019-05-23T23:42:42.459Z,8.40
2019-05-23T23:45:30.640Z,8.50
2019-05-23T23:48:18.029Z,8.40
2019-05-23T23:51:04.515Z,8.40
2019-05-23T23:53:53.573Z,8.40
2019-05-23T23:56:42.678Z,8.40
2019-05-23T23:59:10.449Z,8.40
